Time,TemperatureF,DewpointF,PressureIn,WindDirection,WindDirectionDegrees,WindSpeedMPH,WindSpeedGustMPH,Humidity,HourlyPrecipIn,Conditions,Clouds,dailyrainin,SoftwareType,DateUTC
2013-04-15 00:09:00,27.8,23.0,25.01,NNW,344,7.0,7.0,81,0.00,,,0.00,weatherlink.com 1.10,2013-04-15 06:09:00,
2013-04-15 00:24:00,27.3,23.0,25.01,NNW,336,4.0,6.0,83,0.00,,,0.00,weatherlink.com 1.10,2013-04-15 06:24:00,
2013-04-15 00:39:00,26.9,23.0,25.02,WNW,283,1.0,5.0,84,0.00,,,0.00,weatherlink.com 1.10,2013-04-15 06:39:00,
2013-04-15 00:54:00,26.5,22.0,25.01,NNW,343,8.0,13.0,84,0.00,,,0.00,weatherlink.com 1.10,2013-04-15 06:54:00,
2013-04-15 01:55:00,27.0,20.0,25.03,North,349,4.0,13.0,76,0.00,,,0.00,weatherlink.com 1.10,2013-04-15 07:55:00,
2013-04-15 02:10:00,27.1,20.0,25.06,NNE,32,0.0,4.0,76,0.00,,,0.00,weatherlink.com 1.10,2013-04-15 08:10:00,
2013-04-15 02:25:00,27.0,20.0,25.05,North,349,1.0,4.0,76,0.00,,,0.00,weatherlink.com 1.10,2013-04-15 08:25:00,
2013-04-15 02:40:00,27.1,20.0,25.05,NW,316,2.0,5.0,76,0.00,,,0.00,weatherlink.com 1.10,2013-04-15 08:40:00,
2013-04-15 02:55:00,27.0,20.0,25.06,North,360,1.0,4.0,75,0.00,,,0.00,weatherlink.com 1.10,2013-04-15 08:55:00,
2013-04-15 03:10:00,26.9,20.0,25.05,North,359,4.0,8.0,74,0.00,,,0.00,weatherlink.com 1.10,2013-04-15 09:10:00,
2013-04-15 03:25:00,27.1,20.0,25.05,NW,323,5.0,8.0,74,0.00,,,0.00,weatherlink.com 1.10,2013-04-15 09:25:00,
2013-04-15 03:40:00,26.9,20.0,25.05,NNE,18,5.0,15.0,74,0.00,,,0.00,weatherlink.com 1.10,2013-04-15 09:40:00,
2013-04-15 03:55:00,26.5,20.0,25.05,NNW,332,5.0,11.0,77,0.00,,,0.00,weatherlink.com 1.10,2013-04-15 09:55:00,
2013-04-15 04:10:00,25.9,21.0,25.04,NW,314,4.0,5.0,82,0.00,,,0.00,weatherlink.com 1.10,2013-04-15 10:10:00,
2013-04-15 04:25:00,25.8,21.0,25.04,NW,317,2.0,6.0,82,0.00,,,0.00,weatherlink.com 1.10,2013-04-15 10:25:00,
2013-04-15 04:40:00,25.8,21.0,25.03,WNW,295,1.0,6.0,83,0.00,,,0.00,weatherlink.com 1.10,2013-04-15 10:40:00,
2013-04-15 04:55:00,26.1,21.0,25.03,North,351,4.0,4.0,80,0.00,,,0.00,weatherlink.com 1.10,2013-04-15 10:55:00,
2013-04-15 05:10:00,26.2,22.0,25.04,West,269,0.0,2.0,83,0.00,,,0.00,weatherlink.com 1.10,2013-04-15 11:10:00,
2013-04-15 05:25:00,26.1,22.0,25.05,WSW,258,1.0,3.0,84,0.00,,,0.00,weatherlink.com 1.10,2013-04-15 11:25:00,
2013-04-15 05:40:00,26.0,22.0,25.05,West,259,2.0,2.0,86,0.00,,,0.00,weatherlink.com 1.10,2013-04-15 11:40:00,
2013-04-15 05:55:00,26.1,23.0,25.05,WNW,291,0.0,2.0,86,0.00,,,0.00,weatherlink.com 1.10,2013-04-15 11:55:00,
2013-04-15 06:10:00,25.9,22.0,25.05,NNE,23,2.0,2.0,85,0.00,,,0.00,weatherlink.com 1.10,2013-04-15 12:10:00,
2013-04-15 06:25:00,25.9,22.0,25.05,NE,46,4.0,5.0,85,0.00,,,0.00,weatherlink.com 1.10,2013-04-15 12:25:00,
2013-04-15 06:40:00,25.4,22.0,25.06,NE,49,4.0,5.0,86,0.00,,,0.00,weatherlink.com 1.10,2013-04-15 12:40:00,
2013-04-15 06:55:00,24.1,21.0,25.06,NNE,31,8.0,10.0,88,0.00,,,0.00,weatherlink.com 1.10,2013-04-15 12:55:00,
2013-04-15 07:10:00,23.5,21.0,25.07,NNE,31,6.0,10.0,89,0.00,,,0.00,weatherlink.com 1.10,2013-04-15 13:10:00,
2013-04-15 07:25:00,23.2,21.0,25.08,NNE,23,5.0,9.0,90,0.00,,,0.00,weatherlink.com 1.10,2013-04-15 13:25:00,
2013-04-15 07:40:00,22.7,20.0,25.07,NE,44,9.0,12.0,89,0.00,,,0.00,weatherlink.com 1.10,2013-04-15 13:40:00,
2013-04-15 07:55:00,22.7,21.0,25.09,NE,44,6.0,10.0,91,0.00,,,0.00,weatherlink.com 1.10,2013-04-15 13:55:00,
2013-04-15 08:10:00,22.8,20.0,25.09,NE,34,6.0,6.0,90,0.00,,,0.00,weatherlink.com 1.10,2013-04-15 14:10:00,
2013-04-15 08:25:00,22.8,20.0,25.09,NNE,29,5.0,8.0,90,0.00,,,0.00,weatherlink.com 1.10,2013-04-15 14:25:00,
2013-04-15 08:40:00,22.7,20.0,25.09,NE,42,8.0,10.0,89,0.00,,,0.00,weatherlink.com 1.10,2013-04-15 14:40:00,
2013-04-15 08:55:00,23.0,20.0,25.09,NE,40,3.0,8.0,89,0.00,,,0.00,weatherlink.com 1.10,2013-04-15 14:55:00,
2013-04-15 09:10:00,23.2,20.0,25.09,NNE,29,6.0,9.0,87,0.00,,,0.00,weatherlink.com 1.10,2013-04-15 15:10:00,
2013-04-15 09:25:00,23.0,20.0,25.10,NNE,25,8.0,9.0,88,0.00,,,0.00,weatherlink.com 1.10,2013-04-15 15:25:00,
2013-04-15 09:40:00,23.4,20.0,25.10,NNE,21,6.0,13.0,87,0.00,,,0.00,weatherlink.com 1.10,2013-04-15 15:40:00,
2013-04-15 09:55:00,23.8,20.0,25.11,North,358,4.0,11.0,85,0.00,,,0.00,weatherlink.com 1.10,2013-04-15 15:55:00,
2013-04-15 10:11:00,23.8,20.0,25.10,NE,37,5.0,10.0,85,0.00,,,0.00,weatherlink.com 1.10,2013-04-15 16:11:00,
2013-04-15 10:25:00,23.6,20.0,25.10,NE,34,8.0,8.0,87,0.00,,,0.00,weatherlink.com 1.10,2013-04-15 16:25:00,
2013-04-15 10:40:00,24.3,21.0,25.10,NNE,12,4.0,9.0,87,0.00,,,0.00,weatherlink.com 1.10,2013-04-15 16:40:00,
2013-04-15 10:56:00,25.0,21.0,25.10,NE,38,7.0,8.0,84,0.00,,,0.00,weatherlink.com 1.10,2013-04-15 16:56:00,
2013-04-15 11:11:00,24.6,20.0,25.10,NNE,30,12.0,15.0,82,0.00,,,0.00,weatherlink.com 1.10,2013-04-15 17:11:00,
2013-04-15 11:26:00,24.7,21.0,25.10,NE,40,9.0,11.0,84,0.00,,,0.00,weatherlink.com 1.10,2013-04-15 17:26:00,
2013-04-15 11:41:00,25.4,21.0,25.11,NE,40,8.0,10.0,82,0.00,,,0.00,weatherlink.com 1.10,2013-04-15 17:41:00,
2013-04-15 11:56:00,25.5,22.0,25.10,NE,36,9.0,10.0,85,0.00,,,0.00,weatherlink.com 1.10,2013-04-15 17:56:00,
2013-04-15 12:26:00,26.0,22.0,25.10,NNE,32,4.0,10.0,85,0.00,,,0.00,weatherlink.com 1.10,2013-04-15 18:26:00,
2013-04-15 12:41:00,26.0,22.0,25.10,NE,40,6.0,9.0,84,0.00,,,0.00,weatherlink.com 1.10,2013-04-15 18:41:00,
2013-04-15 12:56:00,26.7,23.0,25.11,NNE,31,7.0,7.0,87,0.00,,,0.00,weatherlink.com 1.10,2013-04-15 18:56:00,
2013-04-15 13:11:00,26.9,24.0,25.11,NE,44,2.0,6.0,87,0.00,,,0.00,weatherlink.com 1.10,2013-04-15 19:11:00,
2013-04-15 14:26:00,27.3,24.0,25.11,NNE,29,7.0,9.0,87,0.00,,,0.00,weatherlink.com 1.10,2013-04-15 20:26:00,
2013-04-15 14:41:00,27.2,24.0,25.13,NE,40,3.0,7.0,86,0.00,,,0.00,weatherlink.com 1.10,2013-04-15 20:41:00,
2013-04-15 14:56:00,27.2,24.0,25.13,NNE,24,5.0,8.0,86,0.00,,,0.00,weatherlink.com 1.10,2013-04-15 20:56:00,
2013-04-15 15:11:00,27.7,24.0,25.12,NNE,30,6.0,8.0,86,0.00,,,0.00,weatherlink.com 1.10,2013-04-15 21:11:00,
2013-04-15 15:26:00,27.1,22.0,25.12,NE,35,4.0,10.0,82,0.00,,,0.00,weatherlink.com 1.10,2013-04-15 21:26:00,
2013-04-15 15:41:00,27.2,23.0,25.12,NNE,16,4.0,8.0,85,0.00,,,0.00,weatherlink.com 1.10,2013-04-15 21:41:00,
2013-04-15 16:11:00,27.3,24.0,25.12,NNE,30,6.0,8.0,87,0.00,,,0.00,weatherlink.com 1.10,2013-04-15 22:11:00,
2013-04-15 16:26:00,26.5,23.0,25.13,NE,54,6.0,9.0,86,0.00,,,0.00,weatherlink.com 1.10,2013-04-15 22:26:00,
2013-04-15 16:41:00,26.3,23.0,25.13,NNE,32,5.0,8.0,88,0.00,,,0.00,weatherlink.com 1.10,2013-04-15 22:41:00,
2013-04-15 16:56:00,26.0,23.0,25.14,NNE,33,5.0,10.0,88,0.00,,,0.00,weatherlink.com 1.10,2013-04-15 22:56:00,
2013-04-15 17:11:00,25.5,23.0,25.15,NE,40,5.0,8.0,89,0.00,,,0.00,weatherlink.com 1.10,2013-04-15 23:11:00,
2013-04-15 17:26:00,25.5,23.0,25.14,North,11,4.0,7.0,91,0.00,,,0.00,weatherlink.com 1.10,2013-04-15 23:26:00,
2013-04-15 17:41:00,25.6,23.0,25.15,NNE,27,3.0,6.0,91,0.00,,,0.00,weatherlink.com 1.10,2013-04-15 23:41:00,
2013-04-15 17:56:00,25.6,23.0,25.16,NE,34,6.0,6.0,91,0.00,,,0.00,weatherlink.com 1.10,2013-04-15 23:56:00,
2013-04-15 18:11:00,25.3,23.0,25.16,NE,40,4.0,6.0,91,0.00,,,0.00,weatherlink.com 1.10,2013-04-16 00:11:00,
2013-04-15 18:26:00,25.4,23.0,25.17,NNE,32,3.0,7.0,91,0.00,,,0.00,weatherlink.com 1.10,2013-04-16 00:26:00,
2013-04-15 18:41:00,25.5,24.0,25.17,NE,37,3.0,4.0,92,0.00,,,0.00,weatherlink.com 1.10,2013-04-16 00:41:00,
2013-04-15 18:56:00,25.7,24.0,25.18,NE,51,2.0,2.0,93,0.00,,,0.00,weatherlink.com 1.10,2013-04-16 00:56:00,
2013-04-15 19:11:00,25.5,24.0,25.18,NE,50,4.0,5.0,93,0.00,,,0.00,weatherlink.com 1.10,2013-04-16 01:11:00,
2013-04-15 19:26:00,25.3,24.0,25.17,East,81,2.0,4.0,93,0.00,,,0.00,weatherlink.com 1.10,2013-04-16 01:26:00,
2013-04-15 19:41:00,25.1,23.0,25.19,NE,53,3.0,4.0,93,0.00,,,0.00,weatherlink.com 1.10,2013-04-16 01:41:00,
2013-04-15 19:56:00,24.8,23.0,25.18,NE,36,4.0,6.0,93,0.00,,,0.00,weatherlink.com 1.10,2013-04-16 01:56:00,
2013-04-15 20:11:00,24.5,23.0,25.18,NE,34,4.0,8.0,92,0.00,,,0.00,weatherlink.com 1.10,2013-04-16 02:11:00,
2013-04-15 20:26:00,24.6,23.0,25.21,NE,43,2.0,5.0,92,0.00,,,0.00,weatherlink.com 1.10,2013-04-16 02:26:00,
2013-04-15 20:41:00,24.7,23.0,25.20,NE,46,3.0,5.0,91,0.00,,,0.00,weatherlink.com 1.10,2013-04-16 02:41:00,
2013-04-15 20:56:00,24.7,23.0,25.21,NE,47,3.0,7.0,91,0.00,,,0.00,weatherlink.com 1.10,2013-04-16 02:56:00,
2013-04-15 21:11:00,24.7,23.0,25.22,NE,40,3.0,4.0,91,0.00,,,0.00,weatherlink.com 1.10,2013-04-16 03:11:00,
2013-04-15 21:26:00,25.0,23.0,25.22,NE,55,0.0,2.0,92,0.00,,,0.00,weatherlink.com 1.10,2013-04-16 03:26:00,
2013-04-15 21:41:00,24.9,23.0,25.22,NE,39,1.0,3.0,92,0.00,,,0.00,weatherlink.com 1.10,2013-04-16 03:41:00,
2013-04-15 21:56:00,24.9,23.0,25.23,ENE,58,1.0,1.0,92,0.00,,,0.00,weatherlink.com 1.10,2013-04-16 03:56:00,
2013-04-15 22:11:00,25.3,23.0,25.23,ENE,61,1.0,1.0,92,0.00,,,0.00,weatherlink.com 1.10,2013-04-16 04:11:00,
2013-04-15 22:26:00,25.4,23.0,25.24,East,87,0.0,1.0,92,0.00,,,0.00,weatherlink.com 1.10,2013-04-16 04:26:00,
2013-04-15 22:42:00,26.0,24.0,25.24,ESE,110,1.0,2.0,92,0.00,,,0.00,weatherlink.com 1.10,2013-04-16 04:42:00,
2013-04-15 22:57:00,25.4,23.0,25.24,East,83,0.0,1.0,92,0.00,,,0.00,weatherlink.com 1.10,2013-04-16 04:57:00,
2013-04-15 23:12:00,25.3,24.0,25.25,ENE,64,0.0,2.0,93,0.00,,,0.00,weatherlink.com 1.10,2013-04-16 05:12:00,
2013-04-15 23:27:00,25.1,23.0,25.25,NE,36,2.0,2.0,93,0.00,,,0.00,weatherlink.com 1.10,2013-04-16 05:27:00,
2013-04-15 23:42:00,24.9,23.0,25.24,NE,47,2.0,4.0,93,0.00,,,0.00,weatherlink.com 1.10,2013-04-16 05:42:00,
2013-04-15 23:57:00,24.9,23.0,25.24,NE,56,1.0,3.0,93,0.00,,,0.00,weatherlink.com 1.10,2013-04-16 05:57:00,